createdAt,value
2023-11-10T00:00:14.002Z,15.50
2023-11-10T00:02:42.315Z,15.60
2023-11-10T00:05:09.936Z,15.50
2023-11-10T00:07:37.624Z,15.50
2023-11-10T00:10:06.027Z,15.40
2023-11-10T00:12:33.444Z,15.40
2023-11-10T00:15:00.509Z,15.40
2023-11-10T00:17:27.536Z,15.40
2023-11-10T00:19:54.403Z,15.40
2023-11-10T00:22:21.318Z,15.40
2023-11-10T00:24:48.311Z,15.40
2023-11-10T00:27:16.378Z,15.50
2023-11-10T00:29:46.373Z,15.40
2023-11-10T00:32:13.955Z,15.50
2023-11-10T00:34:42.129Z,15.50
2023-11-10T00:37:10.434Z,15.50
2023-11-10T00:39:37.710Z,15.50
2023-11-10T00:42:05.022Z,15.50
2023-11-10T00:44:32.042Z,15.50
2023-11-10T00:47:00.582Z,15.50
2023-11-10T00:49:28.009Z,15.50
2023-11-10T00:51:55.008Z,15.40
2023-11-10T00:54:22.048Z,15.50
2023-11-10T00:56:49.130Z,15.50
2023-11-10T00:59:16.246Z,15.40
2023-11-10T01:01:44.036Z,15.50
2023-11-10T01:04:11.589Z,15.50
2023-11-10T01:06:38.906Z,15.40
2023-11-10T01:09:05.916Z,15.40
2023-11-10T01:11:34.041Z,15.40
2023-11-10T01:14:01.162Z,15.50
2023-11-10T01:16:30.355Z,15.50
2023-11-10T01:18:57.524Z,15.50
2023-11-10T01:21:24.558Z,15.50
2023-11-10T01:23:53.429Z,15.50
2023-11-10T01:26:20.874Z,15.50
2023-11-10T01:28:48.345Z,15.50
2023-11-10T01:31:16.954Z,15.50
2023-11-10T01:33:47.448Z,15.50
2023-11-10T01:36:14.354Z,15.40
2023-11-10T01:38:41.610Z,15.50
2023-11-10T01:41:10.524Z,15.40
2023-11-10T01:43:37.506Z,15.40
2023-11-10T01:46:06.539Z,15.50
2023-11-10T01:48:33.904Z,15.40
2023-11-10T01:51:01.016Z,15.40
2023-11-10T01:53:27.890Z,15.40
2023-11-10T01:55:54.910Z,15.40
2023-11-10T01:58:21.968Z,15.40
2023-11-10T02:00:50.479Z,15.40
2023-11-10T02:03:20.212Z,15.40
2023-11-10T02:05:49.978Z,15.40
2023-11-10T02:08:16.876Z,15.40
2023-11-10T02:10:44.092Z,15.50
2023-11-10T02:13:21.438Z,15.30
2023-11-10T02:15:48.380Z,15.40
2023-11-10T02:18:16.474Z,15.40
2023-11-10T02:20:44.171Z,15.30
2023-11-10T02:23:11.115Z,15.30
2023-11-10T02:25:38.319Z,15.30
2023-11-10T02:28:06.318Z,15.30
2023-11-10T02:30:33.195Z,15.20
2023-11-10T02:33:00.137Z,15.20
2023-11-10T02:35:28.176Z,15.10
2023-11-10T02:37:56.357Z,15.10
2023-11-10T02:40:23.181Z,15.00
2023-11-10T02:42:50.005Z,14.90
2023-11-10T02:45:17.110Z,15.00
2023-11-10T02:47:44.612Z,14.80
2023-11-10T02:50:11.788Z,14.90
2023-11-10T02:52:38.678Z,14.80
2023-11-10T02:55:05.672Z,14.80
2023-11-10T02:57:32.605Z,14.90
2023-11-10T02:59:59.693Z,14.90
2023-11-10T03:02:27.406Z,14.80
2023-11-10T03:04:54.306Z,14.80
2023-11-10T03:07:21.107Z,14.80
2023-11-10T03:09:48.181Z,14.90
2023-11-10T03:12:15.383Z,14.90
2023-11-10T03:14:43.526Z,14.90
2023-11-10T03:17:10.398Z,15.00
2023-11-10T03:19:38.288Z,15.00
2023-11-10T03:22:05.328Z,15.00
2023-11-10T03:24:32.308Z,15.00
2023-11-10T03:26:59.243Z,15.10
2023-11-10T03:29:27.872Z,15.10
2023-11-10T03:31:54.857Z,15.10
2023-11-10T03:34:24.998Z,15.10
2023-11-10T03:36:52.194Z,15.10
2023-11-10T03:39:19.148Z,15.20
2023-11-10T03:41:46.104Z,15.20
2023-11-10T03:44:13.915Z,15.20
2023-11-10T03:46:40.934Z,15.20
2023-11-10T03:49:08.532Z,15.10
2023-11-10T03:51:35.478Z,15.20
2023-11-10T03:54:02.850Z,15.20
2023-11-10T03:56:30.013Z,15.30
2023-11-10T03:58:57.095Z,15.20
2023-11-10T04:01:24.007Z,15.30
2023-11-10T04:03:51.037Z,15.30
2023-11-10T04:06:20.182Z,15.30
2023-11-10T04:08:50.572Z,15.30
2023-11-10T04:11:17.440Z,15.30
2023-11-10T04:13:45.427Z,15.40
2023-11-10T04:16:26.164Z,15.30
2023-11-10T04:18:54.715Z,15.30
2023-11-10T04:21:27.476Z,15.30
2023-11-10T04:23:54.554Z,15.40
2023-11-10T04:26:21.918Z,15.30
2023-11-10T04:28:49.066Z,15.30
2023-11-10T04:31:16.809Z,15.40
2023-11-10T04:33:47.189Z,15.30
2023-11-10T04:36:14.590Z,15.30
2023-11-10T04:38:44.878Z,15.40
2023-11-10T04:41:12.495Z,15.30
2023-11-10T04:43:41.716Z,15.40
2023-11-10T04:46:09.495Z,15.30
2023-11-10T04:48:36.626Z,15.40
2023-11-10T04:51:07.224Z,15.30
2023-11-10T04:53:35.143Z,15.30
2023-11-10T04:56:02.880Z,15.40
2023-11-10T04:58:31.183Z,15.30
2023-11-10T05:00:58.305Z,15.30
2023-11-10T05:03:27.109Z,15.30
2023-11-10T05:05:54.088Z,15.30
2023-11-10T05:08:21.008Z,15.30
2023-11-10T05:10:48.393Z,15.30
2023-11-10T05:13:15.428Z,15.30
2023-11-10T05:15:43.685Z,15.30
2023-11-10T05:18:13.273Z,15.30
2023-11-10T05:20:41.113Z,15.30
2023-11-10T05:23:08.235Z,15.40
2023-11-10T05:25:35.078Z,15.30
2023-11-10T05:28:02.152Z,15.30
2023-11-10T05:30:29.194Z,15.30
2023-11-10T05:32:56.148Z,15.30
2023-11-10T05:35:23.507Z,15.30
2023-11-10T05:37:50.379Z,15.30
2023-11-10T05:40:18.758Z,15.30
2023-11-10T05:42:45.878Z,15.30
2023-11-10T05:45:12.928Z,15.30
2023-11-10T05:47:39.935Z,15.30
2023-11-10T05:50:08.036Z,15.30
2023-11-10T05:52:34.871Z,15.30
2023-11-10T05:55:01.760Z,15.30
2023-11-10T05:57:28.568Z,15.30
2023-11-10T05:59:55.469Z,15.30
2023-11-10T06:02:23.791Z,15.30
2023-11-10T06:04:50.756Z,15.30
2023-11-10T06:07:18.028Z,15.30
2023-11-10T06:09:45.099Z,15.30
2023-11-10T06:12:14.163Z,15.30
2023-11-10T06:14:43.378Z,15.40
2023-11-10T06:17:10.289Z,15.30
2023-11-10T06:19:37.128Z,15.30
2023-11-10T06:22:04.176Z,15.40
2023-11-10T06:24:31.078Z,15.30
2023-11-10T06:26:57.944Z,15.40
2023-11-10T06:29:24.806Z,15.30
2023-11-10T06:31:54.551Z,15.30
2023-11-10T06:34:23.063Z,15.30
2023-11-10T06:36:51.364Z,15.30
2023-11-10T06:39:19.273Z,15.30
2023-11-10T06:41:47.232Z,15.40
2023-11-10T06:44:20.246Z,15.30
2023-11-10T06:46:48.060Z,15.40
2023-11-10T06:49:15.280Z,15.40
2023-11-10T06:51:42.367Z,15.50
2023-11-10T06:54:10.748Z,15.40
2023-11-10T06:56:37.554Z,15.40
2023-11-10T06:59:04.522Z,15.50
2023-11-10T07:01:31.433Z,15.50
2023-11-10T07:03:58.334Z,15.50
2023-11-10T07:06:25.311Z,15.60
2023-11-10T07:08:52.217Z,15.50
2023-11-10T07:11:22.136Z,15.50
2023-11-10T07:13:51.128Z,15.50
2023-11-10T07:16:22.014Z,15.50
2023-11-10T07:18:50.394Z,15.50
2023-11-10T07:21:17.268Z,15.60
2023-11-10T07:23:45.294Z,15.60
2023-11-10T07:26:13.623Z,15.50
2023-11-10T07:28:40.523Z,15.50
2023-11-10T07:31:10.385Z,15.50
2023-11-10T07:33:37.292Z,15.50
2023-11-10T07:36:05.172Z,15.60
2023-11-10T07:38:32.413Z,15.50
2023-11-10T07:41:00.011Z,15.60
2023-11-10T07:43:27.017Z,15.60
2023-11-10T07:45:55.689Z,15.60
2023-11-10T07:48:23.127Z,15.60
2023-11-10T07:50:50.412Z,15.60
2023-11-10T07:53:17.383Z,15.60
2023-11-10T07:55:44.262Z,15.70
2023-11-10T07:58:11.231Z,15.70
2023-11-10T08:00:38.222Z,15.70
2023-11-10T08:03:05.484Z,15.80
2023-11-10T08:05:32.608Z,15.70
2023-11-10T08:07:59.673Z,15.80
2023-11-10T08:10:26.533Z,15.80
2023-11-10T08:12:54.704Z,15.80
2023-11-10T08:15:21.765Z,15.80
2023-11-10T08:17:48.674Z,15.80
2023-11-10T08:20:15.614Z,15.90
2023-11-10T08:22:42.647Z,15.80
2023-11-10T08:25:13.097Z,15.80
2023-11-10T08:27:40.375Z,15.80
2023-11-10T08:30:11.395Z,15.90
2023-11-10T08:32:38.823Z,15.90
2023-11-10T08:35:07.323Z,15.90
2023-11-10T08:37:34.294Z,15.90
2023-11-10T08:40:01.258Z,15.90
2023-11-10T08:42:28.218Z,15.80
2023-11-10T08:44:55.452Z,15.90
2023-11-10T08:47:23.176Z,16.00
2023-11-10T08:49:52.249Z,16.00
2023-11-10T08:52:20.517Z,16.00
2023-11-10T08:54:48.448Z,16.10
2023-11-10T08:57:15.909Z,16.10
2023-11-10T08:59:42.889Z,16.20
2023-11-10T09:02:10.014Z,16.20
2023-11-10T09:04:36.955Z,16.30
2023-11-10T09:07:06.594Z,16.30
2023-11-10T09:09:35.099Z,16.30
2023-11-10T09:12:02.816Z,16.40
2023-11-10T09:14:29.617Z,16.30
2023-11-10T09:16:56.764Z,16.20
2023-11-10T09:19:23.965Z,16.30
2023-11-10T09:21:51.132Z,16.20
2023-11-10T09:24:18.017Z,16.30
2023-11-10T09:26:45.142Z,16.40
2023-11-10T09:29:12.036Z,16.40
2023-11-10T09:31:39.934Z,16.40
2023-11-10T09:34:07.047Z,16.40
2023-11-10T09:36:35.369Z,16.40
2023-11-10T09:39:02.908Z,16.50
2023-11-10T09:41:42.336Z,16.40
2023-11-10T09:44:14.025Z,16.60
2023-11-10T09:46:44.397Z,16.70
2023-11-10T09:49:12.320Z,16.80
2023-11-10T09:51:43.733Z,16.90
2023-11-10T09:54:11.419Z,17.00
2023-11-10T09:56:41.157Z,17.00
2023-11-10T09:59:08.281Z,17.00
2023-11-10T10:01:35.602Z,17.10
2023-11-10T10:04:02.641Z,17.20
2023-11-10T10:06:29.982Z,17.30
2023-11-10T10:08:56.866Z,17.30
2023-11-10T10:11:24.045Z,17.20
2023-11-10T10:13:50.870Z,17.30
2023-11-10T10:16:17.904Z,17.40
2023-11-10T10:18:46.886Z,17.30
2023-11-10T10:21:13.987Z,17.40
2023-11-10T10:23:42.147Z,17.40
2023-11-10T10:26:14.036Z,17.50
2023-11-10T10:28:41.120Z,17.60
2023-11-10T10:31:08.217Z,17.70
2023-11-10T10:33:35.871Z,17.70
2023-11-10T10:36:04.744Z,17.60
2023-11-10T10:38:33.614Z,17.60
2023-11-10T10:41:06.417Z,17.60
2023-11-10T10:43:44.025Z,17.50
2023-11-10T10:46:21.936Z,17.50
2023-11-10T10:48:53.879Z,17.50
2023-11-10T10:51:24.167Z,17.40
2023-11-10T10:53:53.599Z,17.40
2023-11-10T10:56:34.190Z,17.40
2023-11-10T10:59:08.745Z,17.50
2023-11-10T11:01:36.072Z,17.60
2023-11-10T11:04:30.582Z,17.60
2023-11-10T11:07:23.798Z,17.60
2023-11-10T11:09:53.405Z,17.50
2023-11-10T11:12:57.135Z,17.50
2023-11-10T11:15:59.333Z,17.80
2023-11-10T11:19:05.134Z,17.90
2023-11-10T11:21:32.587Z,17.80
2023-11-10T11:24:06.120Z,17.80
2023-11-10T11:26:34.962Z,17.60
2023-11-10T11:29:08.091Z,17.60
2023-11-10T11:31:48.241Z,17.50
2023-11-10T11:34:23.508Z,17.40
2023-11-10T11:36:50.922Z,17.40
2023-11-10T11:39:21.127Z,17.40
2023-11-10T11:41:51.905Z,17.20
2023-11-10T11:44:27.735Z,17.30
2023-11-10T11:46:59.094Z,17.30
2023-11-10T11:49:27.467Z,17.40
2023-11-10T11:51:55.826Z,17.40
2023-11-10T11:54:28.988Z,17.40
2023-11-10T11:56:57.257Z,17.50
2023-11-10T11:59:24.935Z,17.50
2023-11-10T12:01:52.379Z,17.50
2023-11-10T12:04:19.441Z,17.40
2023-11-10T12:06:47.760Z,17.50
2023-11-10T12:09:15.045Z,17.40
2023-11-10T12:11:42.555Z,17.40
2023-11-10T12:14:13.040Z,17.20
2023-11-10T12:16:44.789Z,17.10
2023-11-10T12:19:13.734Z,17.10
2023-11-10T12:21:43.842Z,17.00
2023-11-10T12:24:11.441Z,16.90
2023-11-10T12:26:42.158Z,16.90
2023-11-10T12:29:18.583Z,16.80
2023-11-10T12:31:45.991Z,16.80
2023-11-10T12:34:14.483Z,16.80
2023-11-10T12:36:41.864Z,16.80
2023-11-10T12:39:19.277Z,16.80
2023-11-10T12:41:47.443Z,16.80
2023-11-10T12:44:18.462Z,16.80
2023-11-10T12:46:58.684Z,16.80
2023-11-10T12:49:28.309Z,16.80
2023-11-10T12:51:56.746Z,16.90
2023-11-10T12:54:25.788Z,16.90
2023-11-10T12:56:54.074Z,16.90
2023-11-10T12:59:31.258Z,16.70
2023-11-10T13:02:00.116Z,16.70
2023-11-10T13:04:27.429Z,16.60
2023-11-10T13:06:56.315Z,16.60
2023-11-10T13:09:23.633Z,16.50
2023-11-10T13:11:50.697Z,16.50
2023-11-10T13:14:17.950Z,16.40
2023-11-10T13:16:45.566Z,16.40
2023-11-10T13:19:12.797Z,16.30
2023-11-10T13:21:40.404Z,16.40
2023-11-10T13:24:08.444Z,16.40
2023-11-10T13:26:35.386Z,16.40
2023-11-10T13:29:02.200Z,16.40
2023-11-10T13:31:32.091Z,16.40
2023-11-10T13:34:00.166Z,16.50
2023-11-10T13:36:27.295Z,16.60
2023-11-10T13:38:54.714Z,16.60
2023-11-10T13:41:27.736Z,16.60
2023-11-10T13:43:59.664Z,16.60
2023-11-10T13:46:27.597Z,16.60
2023-11-10T13:48:57.079Z,16.60
2023-11-10T13:51:24.107Z,16.60
2023-11-10T13:53:52.848Z,16.60
2023-11-10T13:56:19.735Z,16.60
2023-11-10T13:58:46.838Z,16.50
2023-11-10T14:01:15.728Z,16.50
2023-11-10T14:03:43.045Z,16.70
2023-11-10T14:06:10.589Z,16.70
2023-11-10T14:08:40.928Z,16.70
2023-11-10T14:11:11.582Z,16.90
2023-11-10T14:13:39.502Z,17.10
2023-11-10T14:16:11.194Z,17.10
2023-11-10T14:18:41.025Z,17.10
2023-11-10T14:21:09.461Z,17.10
2023-11-10T14:23:36.547Z,17.10
2023-11-10T14:26:05.469Z,17.00
2023-11-10T14:28:35.949Z,17.10
2023-11-10T14:31:03.125Z,17.10
2023-11-10T14:33:31.054Z,17.20
2023-11-10T14:36:02.948Z,17.10
2023-11-10T14:38:36.158Z,17.10
2023-11-10T14:41:11.109Z,17.10
2023-11-10T14:43:38.482Z,17.20
2023-11-10T14:46:09.447Z,16.90
2023-11-10T14:48:42.231Z,17.00
2023-11-10T14:51:09.395Z,17.00
2023-11-10T14:53:39.041Z,17.00
2023-11-10T14:56:06.609Z,17.10
2023-11-10T14:58:33.640Z,17.10
2023-11-10T15:01:00.569Z,17.10
2023-11-10T15:03:28.762Z,17.10
2023-11-10T15:05:55.967Z,17.00
2023-11-10T15:08:22.838Z,17.00
2023-11-10T15:10:50.353Z,17.00
2023-11-10T15:13:17.728Z,16.90
2023-11-10T15:15:49.958Z,16.80
2023-11-10T15:18:21.098Z,16.80
2023-11-10T15:20:48.317Z,16.70
2023-11-10T15:23:15.611Z,16.60
2023-11-10T15:25:46.943Z,16.60
2023-11-10T15:28:15.664Z,16.60
2023-11-10T15:30:42.908Z,16.60
2023-11-10T15:33:11.098Z,16.60
2023-11-10T15:35:42.108Z,16.50
2023-11-10T15:38:10.224Z,16.40
2023-11-10T15:40:37.186Z,16.50
2023-11-10T15:43:04.253Z,16.50
2023-11-10T15:45:35.273Z,16.40
2023-11-10T15:48:05.174Z,16.40
2023-11-10T15:50:32.193Z,16.30
2023-11-10T15:52:59.146Z,16.30
2023-11-10T15:55:26.594Z,16.30
2023-11-10T15:57:54.158Z,16.20
2023-11-10T16:00:22.384Z,16.20
2023-11-10T16:02:50.400Z,16.10
2023-11-10T16:05:18.962Z,16.10
2023-11-10T16:07:46.419Z,16.10
2023-11-10T16:10:13.297Z,16.10
2023-11-10T16:12:40.532Z,16.20
2023-11-10T16:15:11.385Z,16.00
2023-11-10T16:17:38.356Z,15.90
2023-11-10T16:20:06.080Z,15.80
2023-11-10T16:22:33.674Z,15.70
2023-11-10T16:25:00.856Z,15.60
2023-11-10T16:27:29.640Z,15.50
2023-11-10T16:29:58.308Z,15.50
2023-11-10T16:32:30.958Z,15.50
2023-11-10T16:34:58.421Z,15.50
2023-11-10T16:37:25.473Z,15.40
2023-11-10T16:39:52.559Z,15.40
2023-11-10T16:42:19.679Z,15.40
2023-11-10T16:44:47.086Z,15.30
2023-11-10T16:47:14.832Z,15.20
2023-11-10T16:49:41.783Z,15.20
2023-11-10T16:52:08.907Z,15.10
2023-11-10T16:54:35.937Z,15.10
2023-11-10T16:57:04.106Z,15.00
2023-11-10T16:59:30.980Z,15.00
2023-11-10T17:01:59.327Z,15.00
2023-11-10T17:04:29.626Z,14.90
2023-11-10T17:06:56.567Z,14.90
2023-11-10T17:09:24.912Z,14.80
2023-11-10T17:11:52.852Z,14.80
2023-11-10T17:14:19.677Z,14.80
2023-11-10T17:16:46.646Z,14.70
2023-11-10T17:19:13.638Z,14.70
2023-11-10T17:21:40.527Z,14.70
2023-11-10T17:24:07.864Z,14.70
2023-11-10T17:26:34.814Z,14.70
2023-11-10T17:29:01.858Z,14.70
2023-11-10T17:31:28.946Z,14.70
2023-11-10T17:33:56.845Z,14.70
2023-11-10T17:36:25.136Z,14.80
2023-11-10T17:38:53.327Z,14.80
2023-11-10T17:41:20.261Z,14.80
2023-11-10T17:43:47.096Z,14.90
2023-11-10T17:46:14.185Z,14.90
2023-11-10T17:48:41.187Z,14.90
2023-11-10T17:51:08.308Z,14.90
2023-11-10T17:53:35.527Z,14.80
2023-11-10T17:56:02.601Z,14.90
2023-11-10T17:58:29.561Z,14.80
2023-11-10T18:00:56.650Z,14.80
2023-11-10T18:03:23.765Z,14.90
2023-11-10T18:05:50.834Z,14.90
2023-11-10T18:08:17.869Z,14.90
2023-11-10T18:10:45.854Z,15.00
2023-11-10T18:13:13.087Z,14.90
2023-11-10T18:15:40.568Z,15.00
2023-11-10T18:18:07.934Z,15.00
2023-11-10T18:20:36.098Z,15.10
2023-11-10T18:23:03.456Z,15.10
2023-11-10T18:25:31.200Z,15.10
2023-11-10T18:27:58.223Z,15.10
2023-11-10T18:30:27.496Z,15.20
2023-11-10T18:32:56.097Z,15.30
2023-11-10T18:35:24.098Z,15.30
2023-11-10T18:37:50.991Z,15.40
2023-11-10T18:40:17.983Z,15.40
2023-11-10T18:42:50.409Z,15.40
2023-11-10T18:45:17.377Z,15.40
2023-11-10T18:47:44.355Z,15.30
2023-11-10T18:50:12.012Z,15.40
2023-11-10T18:52:39.492Z,15.40
2023-11-10T18:55:08.133Z,15.40
2023-11-10T18:57:35.692Z,15.40
2023-11-10T19:00:02.560Z,15.30
2023-11-10T19:02:31.277Z,15.30
2023-11-10T19:04:58.528Z,15.10
2023-11-10T19:07:26.342Z,15.10
2023-11-10T19:09:53.549Z,15.00
2023-11-10T19:12:20.721Z,14.90
2023-11-10T19:14:47.756Z,14.90
2023-11-10T19:17:16.265Z,14.80
2023-11-10T19:19:44.060Z,14.70
2023-11-10T19:22:11.609Z,14.70
2023-11-10T19:24:38.833Z,14.70
2023-11-10T19:27:07.015Z,14.70
2023-11-10T19:29:34.104Z,14.60
2023-11-10T19:32:01.246Z,14.40
2023-11-10T19:34:28.515Z,14.30
2023-11-10T19:36:58.450Z,14.10
2023-11-10T19:39:26.228Z,14.00
2023-11-10T19:41:55.361Z,14.00
2023-11-10T19:44:23.575Z,14.00
2023-11-10T19:46:52.607Z,13.90
2023-11-10T19:49:19.701Z,14.00
2023-11-10T19:56:48.028Z,14.10
2023-11-10T20:01:45.588Z,14.10
2023-11-10T20:04:16.804Z,14.10
2023-11-10T20:06:43.813Z,14.10
2023-11-10T20:09:14.890Z,14.00
2023-11-10T20:11:42.330Z,14.00
2023-11-10T20:14:09.415Z,14.00
2023-11-10T20:16:39.344Z,14.00
2023-11-10T20:19:06.328Z,13.90
2023-11-10T20:21:33.163Z,13.90
2023-11-10T20:24:00.138Z,13.90
2023-11-10T20:26:27.078Z,13.90
2023-11-10T20:28:53.979Z,13.80
2023-11-10T20:31:21.030Z,13.80
2023-11-10T20:33:48.139Z,13.90
2023-11-10T20:36:15.090Z,13.80
2023-11-10T20:38:42.411Z,13.90
2023-11-10T20:41:09.786Z,13.80
2023-11-10T20:43:37.570Z,13.90
2023-11-10T20:46:04.951Z,13.90
2023-11-10T20:48:32.801Z,13.90
2023-11-10T20:50:59.998Z,14.00
2023-11-10T20:53:26.867Z,13.90
2023-11-10T20:55:53.787Z,14.00
2023-11-10T20:58:20.697Z,13.90
2023-11-10T21:00:47.702Z,14.00
2023-11-10T21:03:14.748Z,14.00
2023-11-10T21:05:45.191Z,14.10
2023-11-10T21:08:12.942Z,14.00
2023-11-10T21:10:39.816Z,14.00
2023-11-10T21:13:08.173Z,14.00
2023-11-10T21:15:35.741Z,14.10
2023-11-10T21:18:02.889Z,14.10
2023-11-10T21:20:30.573Z,14.10
2023-11-10T21:22:57.566Z,14.10
2023-11-10T21:25:25.692Z,14.00
2023-11-10T21:27:57.207Z,14.00
2023-11-10T21:30:26.897Z,14.00
2023-11-10T21:32:54.312Z,13.90
2023-11-10T21:35:27.189Z,13.90
2023-11-10T21:37:57.273Z,13.80
2023-11-10T21:40:24.331Z,13.80
2023-11-10T21:42:51.265Z,13.80
2023-11-10T21:45:19.064Z,13.80
2023-11-10T21:47:46.036Z,13.80
2023-11-10T21:50:13.369Z,13.80
2023-11-10T21:52:41.579Z,13.90
2023-11-10T21:55:10.124Z,14.00
2023-11-10T21:57:37.024Z,13.90
2023-11-10T22:00:04.218Z,13.80
2023-11-10T22:02:31.062Z,13.90
2023-11-10T22:04:59.742Z,13.80
2023-11-10T22:07:26.682Z,13.70
2023-11-10T22:09:53.598Z,13.70
2023-11-10T22:12:21.146Z,13.70
2023-11-10T22:14:48.961Z,13.60
2023-11-10T22:17:15.790Z,13.60
2023-11-10T22:19:42.909Z,13.40
2023-11-10T22:22:09.840Z,13.40
2023-11-10T22:24:37.693Z,13.40
2023-11-10T22:27:05.366Z,13.30
2023-11-10T22:29:32.301Z,13.30
2023-11-10T22:32:00.375Z,13.30
2023-11-10T22:34:27.821Z,13.30
2023-11-10T22:36:54.705Z,13.20
2023-11-10T22:39:21.567Z,13.30
2023-11-10T22:41:48.473Z,13.20
2023-11-10T22:44:15.350Z,13.20
2023-11-10T22:46:42.747Z,13.10
2023-11-10T22:49:09.576Z,13.20
2023-11-10T22:51:36.531Z,13.10
2023-11-10T22:54:04.081Z,13.10
2023-11-10T22:56:30.973Z,13.20
2023-11-10T22:58:57.929Z,13.10
2023-11-10T23:01:25.312Z,13.00
2023-11-10T23:03:53.794Z,13.00
2023-11-10T23:06:21.127Z,13.00
2023-11-10T23:08:47.988Z,13.00
2023-11-10T23:11:15.402Z,13.00
2023-11-10T23:13:43.294Z,13.00
2023-11-10T23:16:10.430Z,13.10
2023-11-10T23:18:38.647Z,13.10
2023-11-10T23:21:06.187Z,13.00
2023-11-10T23:23:33.478Z,13.00
2023-11-10T23:26:00.594Z,13.10
2023-11-10T23:28:28.138Z,13.10
2023-11-10T23:30:55.394Z,13.20
2023-11-10T23:33:23.568Z,13.20
2023-11-10T23:35:59.179Z,13.20
2023-11-10T23:38:29.734Z,13.20
2023-11-10T23:40:57.953Z,13.20
2023-11-10T23:43:25.328Z,13.10
2023-11-10T23:45:52.645Z,13.10
2023-11-10T23:48:20.057Z,13.00
2023-11-10T23:50:47.886Z,13.00
2023-11-10T23:53:15.587Z,13.00
2023-11-10T23:55:43.801Z,12.90
2023-11-10T23:58:10.763Z,12.90
